Time;durP1;ratioP1;P1;durP2;ratioP2;P2;SDS_P1;SDS_P2;PMS_P1;PMS_P2;Temp;Humidity;BMP_temperature;BMP_pressure;BME280_temperature;BME280_humidity;BME280_pressure;Samples;Min_cycle;Max_cycle;Signal;HPM_P1;HPM_P2
2021/12/09 00:00:58;;;;;;;;;1.00;1.00;;;;;;;;5055238;28;45388;-72
2021/12/09 00:03:24;;;;;;;;;1.75;1.00;;;;;;;;5054330;28;45495;-75
2021/12/09 00:05:49;;;;;;;;;5.75;3.75;;;;;;;;5054238;28;45498;-75
2021/12/09 00:08:14;;;;;;;;;1.00;1.00;;;;;;;;5054607;28;45319;-74
2021/12/09 00:10:40;;;;;;;;;2.00;1.00;;;;;;;;5054647;28;45319;-72
2021/12/09 00:13:06;;;;;;;;;1.00;1.00;;;;;;;;5057826;28;45347;-73
2021/12/09 00:15:32;;;;;;;;;1.25;1.25;;;;;;;;5034647;28;46296;-73
2021/12/09 00:17:57;;;;;;;;;1.75;0.50;;;;;;;;5053484;28;45590;-73
2021/12/09 00:20:22;;;;;;;;;2.50;2.00;;;;;;;;5053886;28;45534;-74
2021/12/09 00:22:48;;;;;;;;;3.50;1.00;;;;;;;;5053952;28;45464;-71
2021/12/09 00:25:14;;;;;;;;;1.25;1.25;;;;;;;;5056135;28;46001;-73
2021/12/09 00:27:39;;;;;;;;;1.75;1.75;;;;;;;;5054325;28;46082;-73
2021/12/09 00:30:05;;;;;;;;;1.50;0.75;;;;;;;;5054137;28;45423;-73
2021/12/09 00:32:30;;;;;;;;;1.75;1.00;;;;;;;;5053777;28;45463;-73
2021/12/09 00:34:56;;;;;;;;;0.50;0.50;;;;;;;;5053848;28;45409;-73
2021/12/09 00:37:28;;;;;;;;;1.75;1.75;;;;;;;;5054928;28;45419;-72
2021/12/09 00:39:53;;;;;;;;;1.00;0.00;;;;;;;;5053932;28;45509;-72
2021/12/09 00:42:20;;;;;;;;;2.00;2.00;;;;;;;;5054129;28;45393;-72
2021/12/09 00:44:45;;;;;;;;;1.75;1.75;;;;;;;;5053813;28;45416;-72
2021/12/09 00:47:11;;;;;;;;;1.00;1.00;;;;;;;;5053501;28;45403;-73
2021/12/09 00:49:36;;;;;;;;;1.00;1.00;;;;;;;;5053918;28;45348;-73
2021/12/09 00:52:02;;;;;;;;;0.00;0.00;;;;;;;;5055932;28;45341;-72
2021/12/09 00:54:27;;;;;;;;;0.00;0.00;;;;;;;;5052097;28;45432;-74
2021/12/09 00:56:52;;;;;;;;;1.25;1.25;;;;;;;;5053431;28;45286;-72
2021/12/09 00:59:18;;;;;;;;;2.00;2.00;;;;;;;;5053317;28;45223;-72
2021/12/09 01:01:43;;;;;;;;;3.50;1.25;;;;;;;;5053275;28;45277;-72
2021/12/09 01:04:08;;;;;;;;;1.00;1.00;;;;;;;;5055260;28;45312;-72
2021/12/09 01:06:33;;;;;;;;;1.25;1.00;;;;;;;;5053125;28;45228;-72
2021/12/09 01:08:59;;;;;;;;;3.00;1.00;;;;;;;;5035467;28;45235;-72
2021/12/09 01:11:24;;;;;;;;;0.25;0.00;;;;;;;;5035516;28;45454;-72
2021/12/09 01:13:49;;;;;;;;;2.00;2.00;;;;;;;;5052618;28;45445;-73
2021/12/09 01:16:14;;;;;;;;;0.00;0.00;;;;;;;;5054822;28;45255;-72
2021/12/09 01:18:40;;;;;;;;;3.00;2.00;;;;;;;;5053954;28;45221;-72
2021/12/09 01:21:05;;;;;;;;;2.75;1.00;;;;;;;;5053622;28;45475;-72
2021/12/09 01:23:31;;;;;;;;;1.00;1.00;;;;;;;;5052992;28;46068;-72
2021/12/09 01:26:01;;;;;;;;;2.00;2.00;;;;;;;;5053129;28;45322;-72
2021/12/09 01:28:30;;;;;;;;;0.75;0.50;;;;;;;;5053650;28;45399;-72
2021/12/09 01:31:03;;;;;;;;;1.00;1.00;;;;;;;;5053138;28;45368;-72
2021/12/09 01:33:29;;;;;;;;;0.00;0.00;;;;;;;;5051544;28;46099;-72
2021/12/09 01:35:54;;;;;;;;;1.00;1.00;;;;;;;;5052923;28;45397;-72
2021/12/09 01:38:19;;;;;;;;;1.25;1.25;;;;;;;;5035359;28;45407;-72
2021/12/09 01:40:45;;;;;;;;;1.75;1.25;;;;;;;;5053483;28;45562;-73
2021/12/09 01:43:11;;;;;;;;;2.00;2.00;;;;;;;;5054962;28;45355;-72
2021/12/09 01:45:36;;;;;;;;;1.75;1.75;;;;;;;;5033443;28;45380;-72
2021/12/09 01:48:02;;;;;;;;;0.75;0.75;;;;;;;;5052841;28;45627;-72
2021/12/09 01:50:27;;;;;;;;;1.00;1.00;;;;;;;;5052757;28;45527;-72
2021/12/09 01:52:52;;;;;;;;;3.00;2.00;;;;;;;;5052829;28;46306;-73
2021/12/09 01:55:19;;;;;;;;;1.50;0.25;;;;;;;;5054141;28;45395;-72
2021/12/09 01:57:48;;;;;;;;;6.00;1.00;;;;;;;;5053671;28;45497;-72
2021/12/09 02:00:15;;;;;;;;;2.00;0.50;;;;;;;;5052302;28;45609;-72
2021/12/09 02:02:41;;;;;;;;;1.00;1.00;;;;;;;;5052503;28;45501;-72
2021/12/09 02:05:09;;;;;;;;;1.00;0.00;;;;;;;;5052969;28;45415;-73
2021/12/09 02:07:34;;;;;;;;;2.00;1.00;;;;;;;;5052995;28;45312;-72
2021/12/09 02:10:00;;;;;;;;;4.00;1.00;;;;;;;;5054740;28;45375;-73
2021/12/09 02:12:25;;;;;;;;;0.25;0.25;;;;;;;;5050893;28;47584;-72
2021/12/09 02:14:52;;;;;;;;;1.25;1.00;;;;;;;;5052417;28;45499;-73
2021/12/09 02:17:18;;;;;;;;;1.75;1.00;;;;;;;;5034670;28;45371;-72
2021/12/09 02:19:44;;;;;;;;;2.00;1.00;;;;;;;;5033211;28;45494;-72
2021/12/09 02:22:10;;;;;;;;;0.50;0.50;;;;;;;;5054531;28;46557;-72
2021/12/09 02:24:37;;;;;;;;;2.00;1.00;;;;;;;;5033338;28;45423;-72
2021/12/09 02:27:02;;;;;;;;;1.00;1.00;;;;;;;;5055612;28;45442;-72
2021/12/09 02:29:28;;;;;;;;;1.75;0.75;;;;;;;;5055739;28;45555;-72
2021/12/09 02:31:56;;;;;;;;;3.75;1.00;;;;;;;;5055880;28;47096;-72
2021/12/09 02:34:21;;;;;;;;;2.00;0.00;;;;;;;;5056837;28;45310;-72
2021/12/09 02:36:47;;;;;;;;;0.00;0.00;;;;;;;;5057091;28;45693;-73
2021/12/09 02:39:13;;;;;;;;;1.00;1.00;;;;;;;;5055844;28;45273;-73
2021/12/09 02:41:39;;;;;;;;;0.75;0.75;;;;;;;;5055121;28;46043;-74
2021/12/09 02:44:06;;;;;;;;;0.00;0.00;;;;;;;;5055923;28;45285;-73
2021/12/09 02:46:37;;;;;;;;;3.00;0.00;;;;;;;;5055795;28;45372;-72
2021/12/09 02:49:08;;;;;;;;;0.00;0.00;;;;;;;;5057765;28;45509;-72
2021/12/09 02:51:34;;;;;;;;;1.50;1.00;;;;;;;;5053931;28;46282;-73
2021/12/09 02:53:59;;;;;;;;;2.00;0.00;;;;;;;;5055277;28;45488;-73
2021/12/09 02:56:24;;;;;;;;;0.00;0.00;;;;;;;;5055247;28;45477;-73
2021/12/09 02:58:49;;;;;;;;;2.75;1.00;;;;;;;;5055371;28;45465;-72
2021/12/09 03:01:17;;;;;;;;;0.75;0.75;;;;;;;;5056738;28;46477;-74
2021/12/09 03:03:49;;;;;;;;;1.25;1.25;;;;;;;;5056265;28;45366;-72
2021/12/09 03:06:15;;;;;;;;;0.75;0.75;;;;;;;;5055564;28;45301;-72
2021/12/09 03:08:42;;;;;;;;;0.75;0.75;;;;;;;;5035687;28;45643;-72
2021/12/09 03:11:10;;;;;;;;;1.25;1.25;;;;;;;;5054893;28;46185;-72
2021/12/09 03:13:36;;;;;;;;;2.50;1.00;;;;;;;;5037175;28;46051;-73
2021/12/09 03:16:02;;;;;;;;;0.00;0.00;;;;;;;;5057271;28;45353;-72
2021/12/09 03:18:27;;;;;;;;;2.75;0.00;;;;;;;;5054969;28;45527;-72
2021/12/09 03:20:53;;;;;;;;;1.00;1.00;;;;;;;;5055066;28;47095;-72
2021/12/09 03:23:19;;;;;;;;;2.75;1.75;;;;;;;;5055084;28;45515;-72
2021/12/09 03:25:44;;;;;;;;;1.00;1.00;;;;;;;;5036775;28;45311;-73
2021/12/09 03:28:09;;;;;;;;;0.75;0.00;;;;;;;;5057158;28;45597;-72
2021/12/09 03:30:34;;;;;;;;;1.00;1.00;;;;;;;;5053357;28;47409;-72
2021/12/09 03:32:59;;;;;;;;;2.50;0.00;;;;;;;;5054850;28;45345;-73
2021/12/09 03:35:25;;;;;;;;;1.00;0.50;;;;;;;;5054885;28;45357;-71
2021/12/09 03:37:50;;;;;;;;;2.50;1.00;;;;;;;;5054401;28;45469;-72
2021/12/09 03:40:16;;;;;;;;;0.00;0.00;;;;;;;;5055825;28;47088;-73
2021/12/09 03:42:43;;;;;;;;;1.50;0.00;;;;;;;;5055330;28;45361;-72
2021/12/09 03:45:08;;;;;;;;;0.25;0.00;;;;;;;;5054642;28;45506;-74
2021/12/09 03:47:34;;;;;;;;;1.00;1.00;;;;;;;;5054579;28;45340;-73
2021/12/09 03:49:59;;;;;;;;;1.00;1.00;;;;;;;;5054625;28;45240;-72
2021/12/09 03:52:26;;;;;;;;;0.00;0.00;;;;;;;;5054916;28;45248;-73
2021/12/09 03:54:51;;;;;;;;;0.00;0.00;;;;;;;;5056035;28;45317;-72
2021/12/09 03:57:16;;;;;;;;;1.00;0.00;;;;;;;;5054339;28;45449;-72
2021/12/09 03:59:42;;;;;;;;;0.00;0.00;;;;;;;;5034887;28;48086;-71
2021/12/09 04:02:08;;;;;;;;;3.50;1.00;;;;;;;;5054380;28;45719;-71
2021/12/09 04:04:33;;;;;;;;;0.50;0.50;;;;;;;;5054678;28;45352;-72
2021/12/09 04:06:58;;;;;;;;;3.00;1.50;;;;;;;;5056674;28;45489;-72
2021/12/09 04:09:25;;;;;;;;;1.00;1.00;;;;;;;;5052502;28;47039;-72
2021/12/09 04:11:51;;;;;;;;;1.75;1.00;;;;;;;;5054018;28;45402;-72
2021/12/09 04:14:17;;;;;;;;;3.00;0.00;;;;;;;;5054170;28;45350;-72
2021/12/09 04:16:42;;;;;;;;;2.50;0.25;;;;;;;;5054387;28;45178;-73
2021/12/09 04:19:09;;;;;;;;;2.00;1.00;;;;;;;;5056610;28;46436;-72
2021/12/09 04:21:35;;;;;;;;;0.75;0.00;;;;;;;;5054554;28;45556;-72
2021/12/09 04:24:07;;;;;;;;;1.00;1.00;;;;;;;;5054497;28;45465;-72
2021/12/09 04:26:32;;;;;;;;;1.25;1.25;;;;;;;;5055156;28;45851;-72
2021/12/09 04:28:58;;;;;;;;;2.00;1.00;;;;;;;;5053832;28;45857;-72
2021/12/09 04:31:23;;;;;;;;;2.00;1.00;;;;;;;;5054952;28;45622;-72
2021/12/09 04:33:48;;;;;;;;;7.50;1.00;;;;;;;;5055543;28;45292;-73
2021/12/09 04:36:13;;;;;;;;;3.75;1.00;;;;;;;;5053671;28;45642;-72
2021/12/09 04:38:39;;;;;;;;;1.00;1.00;;;;;;;;5053161;28;45407;-72
2021/12/09 04:41:05;;;;;;;;;1.00;1.00;;;;;;;;5053440;28;45515;-72
2021/12/09 04:43:30;;;;;;;;;1.50;1.00;;;;;;;;5053743;28;45690;-71
2021/12/09 04:45:59;;;;;;;;;0.75;0.50;;;;;;;;5055523;28;45670;-72
2021/12/09 04:48:24;;;;;;;;;2.25;1.00;;;;;;;;5050866;28;46317;-72
2021/12/09 04:50:49;;;;;;;;;4.50;3.00;;;;;;;;5034518;28;45447;-72
2021/12/09 04:53:15;;;;;;;;;1.00;1.00;;;;;;;;5053299;28;45697;-72
2021/12/09 04:55:40;;;;;;;;;0.00;0.00;;;;;;;;5053512;28;45467;-71
2021/12/09 04:58:07;;;;;;;;;3.50;0.00;;;;;;;;5055027;28;46277;-72
2021/12/09 05:00:36;;;;;;;;;1.00;1.00;;;;;;;;5053331;28;45285;-73
2021/12/09 05:03:04;;;;;;;;;2.25;1.00;;;;;;;;5053265;28;45511;-72
2021/12/09 05:05:33;;;;;;;;;2.00;1.00;;;;;;;;5052589;28;45461;-72
2021/12/09 05:07:58;;;;;;;;;0.50;0.50;;;;;;;;5052921;28;46504;-73
2021/12/09 05:10:23;;;;;;;;;2.00;1.00;;;;;;;;5053793;28;45672;-73
2021/12/09 05:12:49;;;;;;;;;1.00;1.00;;;;;;;;5055059;28;45296;-72
2021/12/09 05:15:14;;;;;;;;;3.00;1.50;;;;;;;;5053662;28;45419;-72
2021/12/09 05:17:39;;;;;;;;;2.75;1.50;;;;;;;;5052936;28;46218;-73
2021/12/09 05:20:05;;;;;;;;;2.00;0.75;;;;;;;;5053128;28;45407;-73
2021/12/09 05:22:31;;;;;;;;;1.00;1.00;;;;;;;;5053142;28;45330;-73
2021/12/09 05:24:56;;;;;;;;;1.00;1.00;;;;;;;;5055306;28;45509;-72
2021/12/09 05:27:21;;;;;;;;;0.25;0.25;;;;;;;;5051140;28;46099;-72
2021/12/09 05:30:02;;;;;;;;;2.50;1.50;;;;;;;;5052306;28;45323;-73
2021/12/09 05:32:28;;;;;;;;;1.50;0.25;;;;;;;;5052457;28;45497;-72
2021/12/09 05:34:53;;;;;;;;;5.00;3.00;;;;;;;;5052631;28;45446;-73
2021/12/09 05:37:20;;;;;;;;;0.75;0.75;;;;;;;;5053371;28;46085;-73
2021/12/09 05:39:46;;;;;;;;;3.00;1.50;;;;;;;;5053099;28;45921;-73
2021/12/09 05:42:12;;;;;;;;;2.00;1.00;;;;;;;;5052276;28;45499;-72
2021/12/09 05:44:38;;;;;;;;;1.00;1.00;;;;;;;;5052119;28;45358;-72
2021/12/09 05:47:05;;;;;;;;;2.50;2.00;;;;;;;;5052299;28;45378;-75
2021/12/09 05:49:31;;;;;;;;;1.50;0.25;;;;;;;;5052602;28;45273;-75
2021/12/09 05:51:56;;;;;;;;;2.00;2.00;;;;;;;;5053754;28;45463;-76
2021/12/09 05:54:21;;;;;;;;;2.00;2.00;;;;;;;;5052140;28;45309;-75
2021/12/09 05:56:46;;;;;;;;;3.25;2.00;;;;;;;;5051829;28;46368;-75
2021/12/09 05:59:12;;;;;;;;;3.00;2.00;;;;;;;;5051759;28;45514;-76
2021/12/09 06:01:38;;;;;;;;;3.25;2.25;;;;;;;;5054859;28;45472;-77
2021/12/09 06:04:04;;;;;;;;;2.75;1.75;;;;;;;;5059248;28;45479;-74
2021/12/09 06:06:29;;;;;;;;;3.50;1.00;;;;;;;;5054433;28;46313;-73
2021/12/09 06:08:55;;;;;;;;;4.00;2.00;;;;;;;;5055138;28;45381;-75
2021/12/09 06:11:20;;;;;;;;;1.75;1.75;;;;;;;;5055343;28;45432;-74
2021/12/09 06:13:47;;;;;;;;;3.50;2.50;;;;;;;;5055178;28;45260;-74
2021/12/09 06:16:13;;;;;;;;;3.50;2.00;;;;;;;;5057315;28;46370;-75
2021/12/09 06:18:38;;;;;;;;;1.00;1.00;;;;;;;;5055380;28;45536;-75
2021/12/09 06:21:03;;;;;;;;;4.75;2.25;;;;;;;;5054898;28;45437;-75
2021/12/09 06:23:28;;;;;;;;;2.75;1.00;;;;;;;;5054793;28;45408;-75
2021/12/09 06:25:54;;;;;;;;;2.00;1.75;;;;;;;;5054667;28;46052;-75
2021/12/09 06:28:19;;;;;;;;;4.75;2.50;;;;;;;;5056081;28;45343;-74
2021/12/09 06:30:45;;;;;;;;;1.50;1.50;;;;;;;;5055662;28;45948;-74
2021/12/09 06:33:10;;;;;;;;;2.25;0.25;;;;;;;;5054864;28;45417;-75
2021/12/09 06:35:36;;;;;;;;;5.75;3.00;;;;;;;;5054208;28;46268;-75
2021/12/09 06:38:02;;;;;;;;;3.00;2.25;;;;;;;;5054653;28;45386;-75
2021/12/09 06:40:27;;;;;;;;;4.75;2.00;;;;;;;;5054602;28;45322;-74
2021/12/09 06:42:53;;;;;;;;;2.00;2.00;;;;;;;;5054567;28;45197;-74
2021/12/09 06:45:19;;;;;;;;;6.25;3.25;;;;;;;;5052821;28;45811;-74
2021/12/09 06:47:45;;;;;;;;;4.50;3.75;;;;;;;;5054225;28;45339;-73
2021/12/09 06:50:12;;;;;;;;;2.00;2.00;;;;;;;;5054155;28;45908;-75
2021/12/09 06:52:37;;;;;;;;;2.25;2.00;;;;;;;;5054860;28;45301;-74
2021/12/09 06:55:03;;;;;;;;;3.75;3.50;;;;;;;;5056314;28;46312;-74
2021/12/09 06:57:29;;;;;;;;;1.00;0.50;;;;;;;;5053881;28;45602;-75
2021/12/09 06:59:55;;;;;;;;;4.00;3.00;;;;;;;;5053700;28;45480;-74
2021/12/09 07:02:20;;;;;;;;;3.25;2.25;;;;;;;;5053929;28;45770;-74
2021/12/09 07:04:45;;;;;;;;;2.50;2.00;;;;;;;;5053763;28;46139;-74
2021/12/09 07:07:10;;;;;;;;;2.75;2.75;;;;;;;;5055572;28;45404;-74
2021/12/09 07:09:37;;;;;;;;;10.25;7.00;;;;;;;;5075314;22;45388;-74
2021/12/09 07:12:03;;;;;;;;;2.75;2.75;;;;;;;;5052689;28;45415;-75
2021/12/09 07:14:28;;;;;;;;;4.00;3.00;;;;;;;;5053000;28;45449;-75
2021/12/09 07:16:54;;;;;;;;;5.25;5.00;;;;;;;;5034660;28;45439;-73
2021/12/09 07:19:19;;;;;;;;;6.00;4.00;;;;;;;;5036736;28;45752;-74
2021/12/09 07:21:44;;;;;;;;;5.25;3.75;;;;;;;;5054072;28;45341;-76
2021/12/09 07:24:09;;;;;;;;;3.75;3.00;;;;;;;;5051587;28;46185;-75
2021/12/09 07:26:35;;;;;;;;;5.25;3.50;;;;;;;;5051740;28;45717;-75
2021/12/09 07:29:00;;;;;;;;;6.00;4.50;;;;;;;;5053886;28;45398;-74
2021/12/09 07:31:27;;;;;;;;;5.25;4.50;;;;;;;;5053832;28;45330;-75
2021/12/09 07:33:52;;;;;;;;;4.25;4.25;;;;;;;;5054603;28;45733;-75
2021/12/09 07:36:17;;;;;;;;;2.00;2.00;;;;;;;;5053066;28;45431;-74
2021/12/09 07:38:45;;;;;;;;;3.00;3.00;;;;;;;;5053560;28;47550;-74
2021/12/09 07:41:11;;;;;;;;;5.00;2.75;;;;;;;;5034529;28;45989;-76
2021/12/09 07:43:36;;;;;;;;;6.25;6.25;;;;;;;;5053281;28;45710;-74
2021/12/09 07:46:01;;;;;;;;;4.75;4.00;;;;;;;;5054176;28;45269;-76
2021/12/09 07:48:26;;;;;;;;;3.25;3.25;;;;;;;;5053072;28;45481;-75
2021/12/09 07:50:52;;;;;;;;;8.00;7.00;;;;;;;;5052930;28;45396;-75
2021/12/09 07:53:17;;;;;;;;;7.25;6.25;;;;;;;;5052488;28;46936;-75
2021/12/09 07:55:43;;;;;;;;;4.50;2.00;;;;;;;;5050776;28;45538;-74
2021/12/09 07:58:08;;;;;;;;;7.50;6.25;;;;;;;;5054424;28;45490;-75
2021/12/09 08:00:34;;;;;;;;;3.00;3.00;;;;;;;;5032407;28;45524;-74
2021/12/09 08:03:00;;;;;;;;;8.25;4.00;;;;;;;;5046625;28;46222;-75
2021/12/09 08:05:27;;;;;;;;;6.50;4.00;;;;;;;;5046004;28;45644;-75
2021/12/09 08:07:52;;;;;;;;;5.75;2.00;;;;;;;;5052790;28;45324;-75
2021/12/09 08:10:19;;;;;;;;;8.50;7.00;;;;;;;;5053158;28;45473;-75
2021/12/09 08:12:44;;;;;;;;;4.50;4.50;;;;;;;;5052418;28;46441;-75
2021/12/09 08:15:11;;;;;;;;;8.50;4.50;;;;;;;;5052181;28;47053;-75
2021/12/09 08:20:12;;;;;;;;;9.00;4.25;;;;;;;;5052620;28;45472;-75
2021/12/09 08:25:50;;;;;;;;;5.75;4.00;;;;;;;;4949879;28;45522;-75
2021/12/09 08:28:25;;;;;;;;;10.00;7.00;;;;;;;;4956158;28;45661;-75
2021/12/09 08:30:51;;;;;;;;;8.25;7.25;;;;;;;;4963394;28;45589;-74
2021/12/09 08:36:19;;;;;;;;;9.50;7.50;;;;;;;;4957590;28;45734;-75
2021/12/09 08:48:17;;;;;;;;;;;;;;;;;;;;;
2021/12/09 08:54:29;;;;;;;;;5.75;4.25;;;;;;;;4740809;29;45419;-74
2021/12/09 08:57:46;;;;;;;;;10.75;9.00;;;;;;;;4741066;29;46271;-73
2021/12/09 09:03:20;;;;;;;;;11.75;7.75;;;;;;;;4711597;29;45603;-74
2021/12/09 09:08:58;;;;;;;;;6.00;6.00;;;;;;;;4713525;29;46957;-74
2021/12/09 09:12:07;;;;;;;;;7.50;7.50;;;;;;;;4699426;30;45558;-75
2021/12/09 09:23:38;;;;;;;;;7.25;6.00;;;;;;;;5941990;22;46346;-74
2021/12/09 09:34:24;;;;;;;;;10.75;8.00;;;;;;;;5050363;28;45566;-73
2021/12/09 09:36:49;;;;;;;;;6.25;5.25;;;;;;;;5054019;28;45350;-74
2021/12/09 09:39:19;;;;;;;;;7.00;5.00;;;;;;;;5051767;28;45458;-76
2021/12/09 09:41:55;;;;;;;;;6.25;5.25;;;;;;;;5046683;28;47136;-74
2021/12/09 09:44:27;;;;;;;;;9.00;8.25;;;;;;;;5047690;28;45381;-75
2021/12/09 09:46:55;;;;;;;;;4.50;4.00;;;;;;;;5050654;28;45436;-74
2021/12/09 09:49:20;;;;;;;;;6.25;5.25;;;;;;;;5051662;28;45419;-74
2021/12/09 09:51:45;;;;;;;;;4.75;4.75;;;;;;;;5055531;28;46604;-74
2021/12/09 09:54:11;;;;;;;;;4.50;3.50;;;;;;;;5045977;28;45246;-74
2021/12/09 09:56:42;;;;;;;;;6.25;5.25;;;;;;;;5054646;28;45261;-74
2021/12/09 09:59:10;;;;;;;;;5.50;5.50;;;;;;;;5049446;28;45318;-74
2021/12/09 10:01:37;;;;;;;;;7.00;3.50;;;;;;;;5049860;28;45465;-74
2021/12/09 10:04:20;;;;;;;;;6.00;5.00;;;;;;;;5055740;28;45514;-73
2021/12/09 10:06:46;;;;;;;;;4.50;3.00;;;;;;;;5048109;28;45483;-74
2021/12/09 10:09:12;;;;;;;;;5.75;3.00;;;;;;;;5054841;28;45432;-73
2021/12/09 10:11:37;;;;;;;;;6.75;5.75;;;;;;;;5046774;28;46389;-75
2021/12/09 10:14:10;;;;;;;;;10.25;4.75;;;;;;;;5053076;28;45505;-74
2021/12/09 10:16:38;;;;;;;;;7.00;6.00;;;;;;;;5051596;28;45435;-74
2021/12/09 10:19:12;;;;;;;;;7.50;5.25;;;;;;;;5051512;28;45601;-75
2021/12/09 10:21:37;;;;;;;;;5.00;4.00;;;;;;;;5054256;28;46301;-74
2021/12/09 10:24:04;;;;;;;;;9.75;4.25;;;;;;;;5049827;28;45499;-74
2021/12/09 10:26:30;;;;;;;;;6.75;4.00;;;;;;;;5054179;28;45219;-75
2021/12/09 10:29:03;;;;;;;;;7.00;7.00;;;;;;;;5049355;28;45462;-74
2021/12/09 10:31:30;;;;;;;;;2.50;2.50;;;;;;;;5050350;28;47118;-74
2021/12/09 10:34:07;;;;;;;;;4.75;4.75;;;;;;;;5055534;28;45423;-74
2021/12/09 10:36:47;;;;;;;;;9.50;7.75;;;;;;;;5044518;28;45605;-74
2021/12/09 10:39:24;;;;;;;;;2.25;2.25;;;;;;;;5052603;28;45496;-75
2021/12/09 10:41:50;;;;;;;;;6.00;3.50;;;;;;;;5044777;28;45407;-75
2021/12/09 10:44:15;;;;;;;;;5.50;4.00;;;;;;;;5054198;28;45463;-75
2021/12/09 10:46:47;;;;;;;;;4.00;4.00;;;;;;;;5034891;28;45370;-75
2021/12/09 10:49:14;;;;;;;;;8.00;4.00;;;;;;;;5037711;28;45622;-74
2021/12/09 10:51:44;;;;;;;;;5.75;4.75;;;;;;;;5051894;28;45802;-74
2021/12/09 10:54:10;;;;;;;;;5.25;4.25;;;;;;;;5027499;28;45527;-75
2021/12/09 10:56:35;;;;;;;;;7.75;6.00;;;;;;;;5053732;28;45304;-74
2021/12/09 10:59:02;;;;;;;;;5.25;5.25;;;;;;;;5050156;28;45288;-82
2021/12/09 11:01:27;;;;;;;;;6.50;3.00;;;;;;;;5041668;28;46140;-80
2021/12/09 11:03:54;;;;;;;;;6.00;5.00;;;;;;;;5056092;28;45292;-77
2021/12/09 11:06:20;;;;;;;;;5.75;5.25;;;;;;;;5047141;28;45285;-80
2021/12/09 11:08:47;;;;;;;;;7.75;5.25;;;;;;;;5057821;28;45628;-78
2021/12/09 11:11:24;;;;;;;;;3.00;1.00;;;;;;;;5042112;28;46941;-79
2021/12/09 11:13:52;;;;;;;;;6.00;3.00;;;;;;;;5048243;28;45278;-79
2021/12/09 11:16:23;;;;;;;;;2.50;2.50;;;;;;;;5060517;28;45458;-77
2021/12/09 11:18:50;;;;;;;;;1.50;1.50;;;;;;;;5051383;28;45551;-78
2021/12/09 11:21:30;;;;;;;;;2.75;2.75;;;;;;;;5052180;28;45388;-77
2021/12/09 11:24:08;;;;;;;;;3.50;2.25;;;;;;;;5055296;28;45332;-76
2021/12/09 11:27:17;;;;;;;;;3.00;3.00;;;;;;;;5050844;28;45586;-77
2021/12/09 11:29:24;;;;;;;;;3.50;2.50;;;;;;;;5036285;28;45408;-79
2021/12/09 11:31:58;;;;;;;;;5.00;4.00;;;;;;;;5053802;28;46412;-78
2021/12/09 11:34:27;;;;;;;;;4.50;1.50;;;;;;;;5053010;28;45500;-77
2021/12/09 11:36:58;;;;;;;;;1.67;1.00;;;;;;;;5098583;22;45421;-76
2021/12/09 11:39:39;;;;;;;;;3.00;2.00;;;;;;;;5184513;22;45447;-77
2021/12/09 11:42:10;;;;;;;;;2.00;2.00;;;;;;;;5517757;22;46173;-79
2021/12/09 11:44:36;;;;;;;;;3.00;3.00;;;;;;;;5057646;28;45417;-78
2021/12/09 11:47:02;;;;;;;;;2.00;1.00;;;;;;;;5057037;28;45679;-77
2021/12/09 11:49:27;;;;;;;;;2.00;1.67;;;;;;;;5041284;28;45339;-79
2021/12/09 11:51:53;;;;;;;;;4.00;3.33;;;;;;;;5036953;28;46945;-79
2021/12/09 11:54:18;;;;;;;;;3.00;2.50;;;;;;;;5036470;28;45502;-78
2021/12/09 12:11:18;;;;;;;;;6.75;3.75;;;;;;;;4860102;29;45389;-78
2021/12/09 12:14:02;;;;;;;;;2.00;2.00;;;;;;;;5086232;22;46462;-78
2021/12/09 12:16:38;;;;;;;;;3.33;2.00;;;;;;;;5037548;28;45245;-78
2021/12/09 12:19:25;;;;;;;;;5.67;4.33;;;;;;;;5055925;28;45340;-78
2021/12/09 12:22:04;;;;;;;;;3.67;3.67;;;;;;;;5053443;28;45409;-78
2021/12/09 12:27:27;;;;;;;;;4.67;2.00;;;;;;;;5054361;28;45462;-78
2021/12/09 12:32:58;;;;;;;;;7.00;5.00;;;;;;;;5056649;28;45331;-78
2021/12/09 12:40:36;;;;;;;;;8.00;3.33;;;;;;;;5055813;28;45408;-79
2021/12/09 13:14:01;;;;;;;;;3.67;1.67;;;;;;;;5040802;28;45351;-80
2021/12/09 13:19:15;;;;;;;;;4.33;1.67;;;;;;;;5070846;28;45321;-81
2021/12/09 13:21:43;;;;;;;;;1.67;1.67;;;;;;;;5041687;28;46654;-80
2021/12/09 13:24:27;;;;;;;;;2.00;2.00;;;;;;;;5052921;28;45332;-80
2021/12/09 13:27:01;;;;;;;;;4.00;4.00;;;;;;;;5054616;28;45192;-80
2021/12/09 13:29:39;;;;;;;;;5.00;5.00;;;;;;;;5055958;28;45541;-79
2021/12/09 13:32:29;;;;;;;;;3.33;3.33;;;;;;;;5055459;28;45796;-81
2021/12/09 13:35:08;;;;;;;;;4.00;3.67;;;;;;;;5055474;28;45431;-80
2021/12/09 13:37:53;;;;;;;;;5.33;3.67;;;;;;;;5037591;28;45361;-80
2021/12/09 13:48:21;;;;;;;;;3.33;2.00;;;;;;;;5057216;28;45328;-80
2021/12/09 13:50:59;;;;;;;;;4.67;3.33;;;;;;;;5055613;28;45356;-80
2021/12/09 13:56:09;;;;;;;;;3.00;3.00;;;;;;;;5063473;22;45685;-80
2021/12/09 13:58:35;;;;;;;;;4.00;3.00;;;;;;;;5018533;28;45361;-80
2021/12/09 14:26:50;;;;;;;;;2.25;2.25;;;;;;;;4997188;28;45475;-78
2021/12/09 14:29:15;;;;;;;;;5.50;2.75;;;;;;;;4998797;28;45499;-79
2021/12/09 14:31:41;;;;;;;;;3.00;2.00;;;;;;;;4999359;28;45551;-79
2021/12/09 14:34:07;;;;;;;;;1.00;1.00;;;;;;;;4998518;28;46356;-79
2021/12/09 14:36:32;;;;;;;;;3.50;1.75;;;;;;;;4999159;28;45398;-79
2021/12/09 14:39:08;;;;;;;;;3.00;3.00;;;;;;;;4999993;28;45460;-80
2021/12/09 14:41:34;;;;;;;;;4.75;4.75;;;;;;;;4981647;28;45381;-80
2021/12/09 14:44:01;;;;;;;;;6.50;4.00;;;;;;;;4999421;28;45360;-80
2021/12/09 14:46:27;;;;;;;;;5.25;3.75;;;;;;;;4999148;28;45198;-79
2021/12/09 14:48:53;;;;;;;;;4.50;3.00;;;;;;;;4998425;28;45341;-80
2021/12/09 14:51:24;;;;;;;;;4.00;2.50;;;;;;;;4998493;28;45490;-80
2021/12/09 14:54:05;;;;;;;;;5.00;2.25;;;;;;;;4998732;28;46076;-78
2021/12/09 14:56:32;;;;;;;;;6.00;3.00;;;;;;;;4999698;28;45277;-79
2021/12/09 14:59:16;;;;;;;;;3.25;2.75;;;;;;;;5001790;28;45327;-79
2021/12/09 15:01:43;;;;;;;;;4.00;2.50;;;;;;;;4999895;28;45360;-78
2021/12/09 15:04:15;;;;;;;;;6.25;3.75;;;;;;;;4999485;28;45403;-80
2021/12/09 15:06:44;;;;;;;;;11.00;8.75;;;;;;;;5006730;28;45398;-81
2021/12/09 15:09:15;;;;;;;;;8.00;5.00;;;;;;;;5017180;28;45279;-78
2021/12/09 15:11:43;;;;;;;;;4.75;3.50;;;;;;;;5000637;28;44851;-80
2021/12/09 15:14:16;;;;;;;;;6.50;5.00;;;;;;;;5005610;28;45447;-81
2021/12/09 15:16:41;;;;;;;;;10.50;8.50;;;;;;;;4999917;28;45461;-80
2021/12/09 15:19:16;;;;;;;;;5.00;4.00;;;;;;;;4999887;28;45328;-80
2021/12/09 15:21:42;;;;;;;;;6.00;5.50;;;;;;;;5000247;28;45492;-79
2021/12/09 15:24:08;;;;;;;;;4.50;4.50;;;;;;;;4998651;28;45535;-79
2021/12/09 15:26:36;;;;;;;;;5.00;4.00;;;;;;;;5016547;28;45317;-80
2021/12/09 15:29:07;;;;;;;;;5.75;4.00;;;;;;;;5017795;28;45542;-80
2021/12/09 15:31:33;;;;;;;;;5.00;3.00;;;;;;;;5017664;28;45385;-78
2021/12/09 15:40:13;;;;;;;;;2.00;2.00;;;;;;;;5110388;22;45500;-80
2021/12/09 15:46:13;;;;;;;;;11.25;6.25;;;;;;;;5052554;28;45364;-79
2021/12/09 15:48:55;;;;;;;;;5.50;5.50;;;;;;;;5058868;28;45336;-80
2021/12/09 16:03:04;;;;;;;;;6.50;5.50;;;;;;;;5056925;28;45342;-79
2021/12/09 16:05:31;;;;;;;;;4.00;3.00;;;;;;;;5056120;28;44916;-80
2021/12/09 16:11:11;;;;;;;;;4.75;4.75;;;;;;;;5045308;28;45555;-80
2021/12/09 16:19:40;;;;;;;;;7.00;2.75;;;;;;;;5035693;28;45767;-82
2021/12/09 17:08:14;;;;;;;;;6.25;5.00;;;;;;;;4992875;28;45549;-81
2021/12/09 17:10:41;;;;;;;;;6.00;4.50;;;;;;;;4991144;28;45743;-80
2021/12/09 17:13:06;;;;;;;;;6.50;5.25;;;;;;;;4991806;28;45611;-75
2021/12/09 17:15:32;;;;;;;;;7.00;5.50;;;;;;;;4993399;28;45450;-74
2021/12/09 17:17:57;;;;;;;;;6.25;5.00;;;;;;;;4977201;28;45642;-75
2021/12/09 17:20:23;;;;;;;;;6.50;5.00;;;;;;;;4994245;28;45340;-75
2021/12/09 17:22:50;;;;;;;;;10.50;7.50;;;;;;;;4991722;28;45392;-75
2021/12/09 17:25:18;;;;;;;;;11.75;9.00;;;;;;;;4995244;28;45453;-75
2021/12/09 17:27:44;;;;;;;;;8.00;7.00;;;;;;;;4987857;28;45441;-76
2021/12/09 17:30:10;;;;;;;;;10.25;7.25;;;;;;;;4994894;28;45437;-75
2021/12/09 17:32:37;;;;;;;;;4.00;4.00;;;;;;;;4978441;28;48279;-75
2021/12/09 17:35:05;;;;;;;;;10.50;9.25;;;;;;;;4985318;28;45447;-77
2021/12/09 17:37:30;;;;;;;;;9.50;8.25;;;;;;;;5007375;28;45406;-76
2021/12/09 17:39:55;;;;;;;;;6.25;6.25;;;;;;;;5006174;28;45542;-79
2021/12/09 17:42:21;;;;;;;;;4.00;2.50;;;;;;;;4999282;28;45595;-76
2021/12/09 17:44:46;;;;;;;;;10.75;5.75;;;;;;;;5030302;28;45355;-75
2021/12/09 17:47:11;;;;;;;;;9.75;8.00;;;;;;;;5035937;28;45394;-75
2021/12/09 17:49:42;;;;;;;;;6.50;6.50;;;;;;;;5052319;28;45332;-77
2021/12/09 17:52:17;;;;;;;;;6.50;6.50;;;;;;;;5054077;28;46553;-75
2021/12/09 17:54:42;;;;;;;;;10.50;9.00;;;;;;;;5051783;28;45393;-73
2021/12/09 17:57:08;;;;;;;;;8.75;7.25;;;;;;;;5048400;28;45409;-75
2021/12/09 17:59:33;;;;;;;;;8.25;7.25;;;;;;;;5053858;28;45654;-76
2021/12/09 18:01:59;;;;;;;;;10.50;8.00;;;;;;;;5037374;28;46290;-76
2021/12/09 18:04:24;;;;;;;;;9.50;9.00;;;;;;;;5056602;28;45250;-76
2021/12/09 18:10:51;;;;;;;;;11.00;9.00;;;;;;;;4973689;28;45541;-75
2021/12/09 18:19:39;;;;;;;;;9.75;8.00;;;;;;;;4916635;28;45433;-75
2021/12/09 18:22:04;;;;;;;;;8.75;8.75;;;;;;;;4903692;28;45417;-74
2021/12/09 18:24:30;;;;;;;;;11.50;11.50;;;;;;;;4895333;28;46953;-75
2021/12/09 18:26:55;;;;;;;;;12.75;9.25;;;;;;;;4912391;28;45473;-74
2021/12/09 18:29:20;;;;;;;;;14.00;11.00;;;;;;;;4912156;28;45418;-76
2021/12/09 18:31:46;;;;;;;;;13.00;11.25;;;;;;;;4916356;28;45431;-75
2021/12/09 18:34:11;;;;;;;;;12.00;10.50;;;;;;;;4912074;28;45520;-75